createdAt,value
2018-06-25T00:00:49.491Z,8.40
2018-06-25T00:03:20.065Z,5.70
2018-06-25T00:05:50.645Z,5.90
2018-06-25T00:08:21.532Z,9.13
2018-06-25T00:10:51.823Z,8.27
2018-06-25T00:13:22.574Z,5.03
2018-06-25T00:15:53.352Z,5.23
2018-06-25T00:18:24.074Z,5.90
2018-06-25T00:20:54.600Z,9.63
2018-06-25T00:23:25.098Z,4.87
2018-06-25T00:25:55.521Z,6.87
2018-06-25T00:28:26.072Z,4.70
2018-06-25T00:30:56.663Z,5.80
2018-06-25T00:33:27.153Z,6.60
2018-06-25T00:35:57.662Z,5.77
2018-06-25T00:38:28.130Z,5.10
2018-06-25T00:40:59.070Z,4.87
2018-06-25T00:43:29.246Z,4.90
2018-06-25T00:45:59.693Z,4.63
2018-06-25T00:48:30.381Z,5.03
2018-06-25T00:51:01.099Z,10.30
2018-06-25T00:53:32.036Z,8.47
2018-06-25T00:56:03.038Z,8.13
2018-06-25T00:58:44.950Z,7.70
2018-06-25T01:01:15.818Z,10.67
2018-06-25T01:03:46.533Z,8.13
2018-06-25T01:06:17.755Z,6.50
2018-06-25T01:08:54.840Z,7.90
2018-06-25T01:11:26.404Z,7.63
2018-06-25T01:13:56.889Z,7.97
2018-06-25T01:16:27.402Z,9.00
2018-06-25T01:18:58.463Z,8.00
2018-06-25T01:21:29.161Z,6.90
2018-06-25T01:23:59.744Z,7.70
2018-06-25T01:26:30.577Z,9.63
2018-06-25T01:29:01.245Z,6.33
2018-06-25T01:31:31.986Z,8.27
2018-06-25T01:34:02.593Z,7.37
2018-06-25T01:36:33.426Z,8.73
2018-06-25T01:39:04.080Z,14.93
2018-06-25T01:41:34.619Z,9.77
2018-06-25T01:44:08.240Z,8.00
2018-06-25T01:46:39.244Z,10.50
2018-06-25T01:49:09.889Z,9.93
2018-06-25T01:51:40.434Z,10.90
2018-06-25T01:54:11.001Z,9.93
2018-06-25T01:56:41.980Z,9.53
2018-06-25T01:59:12.952Z,12.90
2018-06-25T02:01:43.447Z,8.70
2018-06-25T02:04:14.275Z,8.50
2018-06-25T02:06:44.809Z,9.67
2018-06-25T02:09:15.486Z,9.00
2018-06-25T02:11:46.133Z,10.47
2018-06-25T02:14:17.010Z,9.00
2018-06-25T02:16:47.585Z,9.47
2018-06-25T02:19:18.249Z,13.70
2018-06-25T02:21:48.500Z,12.47
2018-06-25T02:24:18.825Z,8.10
2018-06-25T02:26:49.480Z,14.73
2018-06-25T02:29:20.167Z,8.00
2018-06-25T02:31:50.716Z,11.37
2018-06-25T02:34:21.492Z,10.27
2018-06-25T02:36:52.053Z,10.07
2018-06-25T02:39:23.004Z,7.13
2018-06-25T02:41:53.746Z,27.13
2018-06-25T02:44:24.026Z,8.50
2018-06-25T02:46:54.613Z,10.10
2018-06-25T02:49:25.450Z,8.43
2018-06-25T02:51:56.056Z,9.57
2018-06-25T02:54:27.307Z,8.60
2018-06-25T02:56:58.363Z,10.73
2018-06-25T02:59:29.206Z,10.40
2018-06-25T03:01:59.438Z,8.00
2018-06-25T03:04:29.841Z,6.70
2018-06-25T03:07:00.353Z,8.73
2018-06-25T03:09:31.001Z,9.53
2018-06-25T03:12:01.242Z,11.93
2018-06-25T03:14:31.425Z,6.83
2018-06-25T03:17:01.824Z,11.30
2018-06-25T03:19:32.416Z,6.30
2018-06-25T03:22:03.046Z,6.23
2018-06-25T03:24:33.681Z,6.43
2018-06-25T03:27:04.364Z,6.60
2018-06-25T03:29:34.806Z,7.73
2018-06-25T03:32:05.741Z,8.60
2018-06-25T03:34:36.327Z,11.50
2018-06-25T03:37:06.788Z,7.53
2018-06-25T03:39:37.370Z,6.60
2018-06-25T03:42:08.205Z,8.43
2018-06-25T03:44:38.514Z,5.67
2018-06-25T03:47:09.350Z,10.80
2018-06-25T03:49:39.692Z,5.93
2018-06-25T03:52:10.203Z,8.83
2018-06-25T03:54:40.450Z,10.43
2018-06-25T03:57:10.846Z,7.00
2018-06-25T03:59:42.069Z,6.70
2018-06-25T04:02:12.658Z,4.80
2018-06-25T04:04:47.997Z,4.80
2018-06-25T04:07:18.592Z,5.50
2018-06-25T04:09:49.276Z,6.27
2018-06-25T04:12:20.146Z,6.67
2018-06-25T04:14:51.020Z,5.53
2018-06-25T04:17:22.090Z,4.87
2018-06-25T04:19:52.587Z,3.67
2018-06-25T04:22:23.335Z,4.40
2018-06-25T04:24:54.256Z,4.33
2018-06-25T04:27:25.215Z,3.83
2018-06-25T04:29:55.947Z,7.03
2018-06-25T04:32:26.628Z,5.03
2018-06-25T04:34:57.591Z,10.17
2018-06-25T04:37:27.748Z,4.10
2018-06-25T04:39:58.372Z,3.87
2018-06-25T04:42:29.095Z,4.13
2018-06-25T04:44:59.590Z,9.13
2018-06-25T04:47:31.079Z,4.00
2018-06-25T04:50:01.570Z,4.47
2018-06-25T04:52:32.059Z,4.03
2018-06-25T04:55:03.321Z,3.33
2018-06-25T04:57:34.410Z,3.93
2018-06-25T05:00:05.562Z,3.70
2018-06-25T05:02:36.562Z,3.80
2018-06-25T05:05:07.142Z,3.23
2018-06-25T05:07:37.905Z,5.10
2018-06-25T05:10:08.709Z,3.13
2018-06-25T05:12:39.340Z,3.70
2018-06-25T05:15:10.045Z,4.80
2018-06-25T05:17:40.589Z,2.73
2018-06-25T05:20:11.236Z,3.30
2018-06-25T05:22:41.978Z,6.47
2018-06-25T05:25:12.913Z,3.00
2018-06-25T05:27:43.674Z,3.07
2018-06-25T05:30:14.374Z,2.80
2018-06-25T05:32:45.300Z,9.60
2018-06-25T05:35:15.457Z,3.43
2018-06-25T05:37:46.048Z,3.10
2018-06-25T05:40:16.318Z,2.47
2018-06-25T05:42:46.650Z,2.63
2018-06-25T05:45:22.068Z,2.50
2018-06-25T05:47:52.879Z,2.90
2018-06-25T05:50:23.395Z,2.17
2018-06-25T05:52:54.178Z,2.30
2018-06-25T05:55:24.807Z,2.40
2018-06-25T05:57:55.665Z,2.67
2018-06-25T06:00:26.134Z,3.37
2018-06-25T06:02:56.630Z,2.90
2018-06-25T06:05:26.966Z,2.33
2018-06-25T06:07:57.445Z,2.30
2018-06-25T06:10:28.183Z,1.70
2018-06-25T06:12:58.723Z,1.40
2018-06-25T06:15:29.233Z,1.97
2018-06-25T06:17:59.961Z,1.73
2018-06-25T06:20:30.469Z,2.87
2018-06-25T06:23:01.278Z,1.87
2018-06-25T06:25:31.980Z,1.77
2018-06-25T06:28:02.659Z,2.57
2018-06-25T06:30:33.526Z,1.70
2018-06-25T06:33:04.209Z,1.53
2018-06-25T06:35:35.409Z,1.60
2018-06-25T06:38:06.352Z,1.10
2018-06-25T06:40:37.022Z,1.43
2018-06-25T06:43:07.484Z,1.03
2018-06-25T06:45:38.142Z,1.20
2018-06-25T06:48:09.235Z,1.20
2018-06-25T06:50:39.792Z,1.60
2018-06-25T06:53:10.829Z,1.67
2018-06-25T06:55:42.007Z,1.20
2018-06-25T06:58:19.179Z,0.90
2018-06-25T07:00:49.911Z,1.00
2018-06-25T07:03:20.625Z,0.90
2018-06-25T07:05:51.446Z,0.67
2018-06-25T07:08:22.170Z,1.17
2018-06-25T07:10:52.862Z,0.90
2018-06-25T07:13:23.594Z,0.80
2018-06-25T07:15:54.115Z,0.90
2018-06-25T07:18:24.633Z,1.03
2018-06-25T07:20:55.376Z,0.90
2018-06-25T07:23:26.188Z,2.27
2018-06-25T07:25:56.388Z,0.70
2018-06-25T07:28:27.084Z,0.90
2018-06-25T07:30:57.833Z,2.23
2018-06-25T07:33:28.511Z,0.97
2018-06-25T07:35:59.099Z,0.90
2018-06-25T07:38:30.002Z,0.80
2018-06-25T07:41:00.944Z,0.90
2018-06-25T07:43:31.610Z,1.90
2018-06-25T07:46:02.297Z,0.87
2018-06-25T07:48:32.962Z,0.70
2018-06-25T07:51:03.525Z,1.80
2018-06-25T07:53:34.121Z,3.70
2018-06-25T07:56:04.823Z,0.90
2018-06-25T07:58:35.538Z,0.60
2018-06-25T08:01:06.710Z,0.70
2018-06-25T08:03:37.467Z,2.00
2018-06-25T08:06:08.256Z,0.70
2018-06-25T08:08:39.108Z,1.60
2018-06-25T08:11:10.098Z,1.07
2018-06-25T08:13:41.065Z,0.60
2018-06-25T08:16:11.741Z,0.93
2018-06-25T08:18:42.813Z,1.27
2018-06-25T08:21:13.613Z,0.90
2018-06-25T08:23:44.470Z,0.80
2018-06-25T08:26:15.961Z,1.03
2018-06-25T08:28:46.733Z,1.23
2018-06-25T08:31:17.537Z,2.60
2018-06-25T08:33:48.231Z,2.30
2018-06-25T08:36:19.080Z,0.90
2018-06-25T08:38:57.660Z,1.20
2018-06-25T08:41:28.447Z,0.80
2018-06-25T08:43:59.045Z,1.80
2018-06-25T08:46:29.809Z,0.83
2018-06-25T08:49:00.409Z,1.20
2018-06-25T08:51:31.246Z,1.30
2018-06-25T08:54:01.751Z,0.90
2018-06-25T08:56:32.437Z,3.13
2018-06-25T08:59:02.930Z,2.30
2018-06-25T09:01:33.599Z,0.90
2018-06-25T09:04:04.285Z,1.00
2018-06-25T09:06:34.938Z,1.20
2018-06-25T09:09:08.657Z,2.00
2018-06-25T09:11:39.308Z,3.60
2018-06-25T09:14:10.004Z,5.73
2018-06-25T09:16:40.980Z,1.10
2018-06-25T09:19:12.074Z,1.10
2018-06-25T09:21:42.695Z,3.23
2018-06-25T09:24:13.438Z,2.73
2018-06-25T09:26:43.940Z,3.07
2018-06-25T09:29:14.513Z,1.30
2018-06-25T09:31:45.122Z,1.10
2018-06-25T09:34:20.709Z,1.10
2018-06-25T09:36:51.200Z,1.27
2018-06-25T09:39:21.745Z,1.83
2018-06-25T09:41:52.470Z,1.70
2018-06-25T09:44:23.297Z,1.93
2018-06-25T09:46:53.905Z,2.60
2018-06-25T09:49:24.972Z,2.03
2018-06-25T09:51:55.698Z,1.60
2018-06-25T09:54:26.331Z,1.50
2018-06-25T09:56:56.963Z,12.20
2018-06-25T09:59:28.264Z,1.53
2018-06-25T10:01:58.946Z,0.90
2018-06-25T10:04:32.630Z,0.97
2018-06-25T10:07:03.453Z,1.13
2018-06-25T10:09:34.260Z,1.63
2018-06-25T10:12:05.146Z,0.80
2018-06-25T10:14:35.604Z,0.73
2018-06-25T10:17:06.566Z,0.60
2018-06-25T10:19:38.078Z,0.93
2018-06-25T10:22:08.543Z,0.87
2018-06-25T10:24:39.431Z,0.83
2018-06-25T10:27:10.092Z,0.70
2018-06-25T10:29:41.650Z,0.80
2018-06-25T10:32:12.353Z,0.80
2018-06-25T10:34:43.102Z,0.70
2018-06-25T10:37:14.030Z,0.97
2018-06-25T10:39:44.281Z,0.80
2018-06-25T10:42:14.865Z,0.60
2018-06-25T10:44:45.522Z,1.30
2018-06-25T10:47:16.160Z,2.13
2018-06-25T10:49:47.609Z,0.60
2018-06-25T10:52:18.258Z,0.57
2018-06-25T10:54:48.887Z,0.60
2018-06-25T10:57:19.918Z,0.60
2018-06-25T10:59:50.682Z,4.80
2018-06-25T11:02:21.114Z,1.23
2018-06-25T11:04:51.704Z,0.60
2018-06-25T11:07:22.668Z,0.60
2018-06-25T11:09:53.132Z,0.77
2018-06-25T11:12:23.780Z,1.20
2018-06-25T11:14:54.287Z,0.70
2018-06-25T11:17:25.101Z,3.40
2018-06-25T11:19:55.625Z,0.70
2018-06-25T11:22:26.367Z,27.27
2018-06-25T11:24:57.845Z,0.80
2018-06-25T11:27:28.567Z,0.90
2018-06-25T11:29:59.315Z,0.80
2018-06-25T11:32:29.858Z,0.70
2018-06-25T11:35:00.428Z,5.67
2018-06-25T11:37:31.154Z,0.80
2018-06-25T11:40:01.803Z,0.80
2018-06-25T11:42:32.513Z,0.83
2018-06-25T11:45:03.253Z,3.50
2018-06-25T11:47:33.896Z,0.90
2018-06-25T11:50:05.032Z,0.60
2018-06-25T11:52:35.753Z,0.90
2018-06-25T11:55:05.930Z,2.43
2018-06-25T11:57:36.383Z,0.67
2018-06-25T12:00:07.124Z,0.70
2018-06-25T12:02:37.904Z,0.97
2018-06-25T12:05:08.422Z,0.90
2018-06-25T12:07:39.121Z,1.00
2018-06-25T12:10:09.652Z,0.90
2018-06-25T12:12:39.899Z,1.00
2018-06-25T12:15:10.108Z,0.70
2018-06-25T12:17:40.773Z,0.90
2018-06-25T12:20:11.543Z,0.97
2018-06-25T12:22:41.613Z,0.80
2018-06-25T12:25:12.187Z,1.03
2018-06-25T12:27:42.833Z,1.07
2018-06-25T12:30:20.041Z,2.30
2018-06-25T12:32:51.270Z,0.90
2018-06-25T12:35:21.712Z,1.00
2018-06-25T12:37:51.978Z,0.80
2018-06-25T12:40:22.435Z,1.27
2018-06-25T12:42:52.980Z,0.80
2018-06-25T12:45:23.634Z,0.90
2018-06-25T12:47:54.253Z,1.23
2018-06-25T12:50:24.577Z,1.80
2018-06-25T12:52:55.001Z,1.00
2018-06-25T12:55:25.396Z,0.90
2018-06-25T12:57:55.941Z,1.10
2018-06-25T13:00:26.563Z,1.00
2018-06-25T13:02:57.262Z,1.10
2018-06-25T13:05:28.016Z,1.33
2018-06-25T13:07:58.796Z,1.00
2018-06-25T13:10:28.991Z,0.90
2018-06-25T13:12:59.671Z,1.17
2018-06-25T13:15:30.357Z,1.00
2018-06-25T13:18:01.121Z,1.00
2018-06-25T13:20:31.769Z,1.00
2018-06-25T13:23:02.373Z,1.47
2018-06-25T13:25:33.061Z,2.67
2018-06-25T13:28:03.721Z,0.90
2018-06-25T13:30:34.451Z,1.20
2018-06-25T13:33:05.373Z,1.00
2018-06-25T13:35:36.097Z,0.93
2018-06-25T13:38:06.968Z,1.23
2018-06-25T13:40:37.276Z,0.90
2018-06-25T13:43:08.084Z,1.33
2018-06-25T13:45:38.708Z,4.53
2018-06-25T13:48:09.437Z,1.20
2018-06-25T13:50:40.229Z,0.97
2018-06-25T13:53:10.741Z,1.70
2018-06-25T13:55:47.992Z,1.20
2018-06-25T13:58:18.940Z,1.10
2018-06-25T14:00:49.680Z,0.90
2018-06-25T14:03:20.403Z,3.10
2018-06-25T14:05:51.554Z,0.97
2018-06-25T14:08:22.157Z,1.13
2018-06-25T14:10:52.903Z,1.00
2018-06-25T14:13:24.150Z,1.13
2018-06-25T14:15:54.947Z,1.00
2018-06-25T14:18:25.868Z,3.13
2018-06-25T14:20:56.596Z,3.30
2018-06-25T14:23:27.306Z,1.10
2018-06-25T14:26:03.080Z,1.27
2018-06-25T14:28:35.549Z,0.70
2018-06-25T14:31:11.303Z,1.20
2018-06-25T14:33:43.374Z,0.87
2018-06-25T14:36:14.084Z,2.40
2018-06-25T14:38:45.017Z,0.90
2018-06-25T14:41:15.850Z,4.50
2018-06-25T14:43:46.356Z,0.93
2018-06-25T14:46:16.648Z,1.20
2018-06-25T14:48:47.204Z,3.13
2018-06-25T14:51:17.428Z,3.70
2018-06-25T14:53:48.029Z,1.17
2018-06-25T14:56:18.726Z,3.27
2018-06-25T14:58:49.299Z,1.60
2018-06-25T15:01:20.185Z,2.03
2018-06-25T15:03:51.321Z,1.47
2018-06-25T15:06:21.985Z,1.37
2018-06-25T15:08:52.637Z,2.10
2018-06-25T15:11:23.554Z,1.63
2018-06-25T15:13:54.140Z,1.70
2018-06-25T15:16:24.892Z,1.77
2018-06-25T15:18:55.677Z,1.70
2018-06-25T15:21:26.366Z,1.90
2018-06-25T15:23:57.068Z,2.20
2018-06-25T15:26:28.361Z,1.57
2018-06-25T15:28:59.194Z,9.47
2018-06-25T15:31:29.911Z,6.33
2018-06-25T15:34:00.492Z,2.50
2018-06-25T15:36:31.145Z,1.70
2018-06-25T15:39:01.674Z,1.80
2018-06-25T15:41:32.094Z,2.00
2018-06-25T15:44:02.951Z,3.13
2018-06-25T15:46:33.935Z,2.07
2018-06-25T15:49:04.637Z,1.97
2018-06-25T15:51:35.588Z,1.90
2018-06-25T15:54:06.176Z,3.27
2018-06-25T15:56:36.452Z,3.53
2018-06-25T15:59:07.282Z,2.07
2018-06-25T16:01:37.766Z,8.70
2018-06-25T16:04:08.521Z,2.40
2018-06-25T16:06:39.331Z,12.53
2018-06-25T16:09:09.969Z,1.77
2018-06-25T16:11:40.573Z,1.70
2018-06-25T16:14:10.768Z,2.30
2018-06-25T16:16:41.292Z,1.57
2018-06-25T16:19:12.421Z,3.73
2018-06-25T16:21:43.343Z,2.40
2018-06-25T16:24:14.305Z,3.13
2018-06-25T16:26:44.359Z,6.40
2018-06-25T16:29:14.923Z,2.57
2018-06-25T16:31:45.589Z,2.03
2018-06-25T16:34:16.390Z,7.97
2018-06-25T16:36:47.432Z,7.03
2018-06-25T16:39:18.200Z,3.40
2018-06-25T16:41:48.933Z,2.50
2018-06-25T16:44:19.756Z,4.03
2018-06-25T16:46:50.606Z,3.10
2018-06-25T16:49:21.308Z,3.80
2018-06-25T16:51:52.245Z,2.57
2018-06-25T16:54:23.415Z,3.40
2018-06-25T16:56:54.185Z,2.50
2018-06-25T16:59:24.901Z,4.27
2018-06-25T17:01:55.512Z,4.43
2018-06-25T17:04:25.749Z,2.50
2018-06-25T17:06:58.179Z,3.17
2018-06-25T17:09:28.408Z,2.97
2018-06-25T17:11:59.259Z,2.93
2018-06-25T17:14:29.893Z,6.00
2018-06-25T17:17:00.301Z,4.67
2018-06-25T17:19:30.966Z,5.77
2018-06-25T17:22:01.921Z,6.47
2018-06-25T17:24:33.217Z,7.37
2018-06-25T17:27:03.789Z,4.67
2018-06-25T17:29:34.791Z,5.30
2018-06-25T17:32:06.080Z,3.40
2018-06-25T17:34:36.821Z,4.60
2018-06-25T17:37:07.432Z,4.87
2018-06-25T17:39:38.130Z,9.70
2018-06-25T17:42:09.357Z,5.13
2018-06-25T17:44:40.126Z,7.00
2018-06-25T17:47:10.761Z,7.33
2018-06-25T17:49:41.554Z,3.20
2018-06-25T17:52:12.394Z,3.47
2018-06-25T17:54:43.079Z,4.80
2018-06-25T17:57:13.305Z,3.97
2018-06-25T17:59:44.473Z,3.30
2018-06-25T18:02:15.086Z,6.33
2018-06-25T18:04:45.641Z,5.33
2018-06-25T18:07:16.493Z,4.40
2018-06-25T18:09:47.174Z,5.43
2018-06-25T18:12:18.218Z,5.60
2018-06-25T18:14:48.953Z,7.13
2018-06-25T18:17:19.868Z,3.47
2018-06-25T18:19:50.517Z,5.90
2018-06-25T18:22:21.706Z,4.40
2018-06-25T18:24:52.237Z,4.97
2018-06-25T18:27:22.825Z,5.80
2018-06-25T18:29:53.565Z,5.50
2018-06-25T18:32:24.401Z,2.87
2018-06-25T18:34:55.232Z,3.77
2018-06-25T18:37:25.871Z,7.00
2018-06-25T18:39:56.615Z,9.03
2018-06-25T18:42:27.195Z,8.80
2018-06-25T18:44:58.318Z,8.10
2018-06-25T18:47:28.957Z,7.63
2018-06-25T18:50:00.048Z,4.80
2018-06-25T18:52:30.711Z,6.03
2018-06-25T18:55:01.583Z,6.00
2018-06-25T18:57:32.223Z,5.17
2018-06-25T19:00:02.884Z,6.40
2018-06-25T19:02:33.492Z,6.83
2018-06-25T19:05:05.056Z,8.60
2018-06-25T19:07:36.781Z,8.30
2018-06-25T19:10:07.550Z,8.90
2018-06-25T19:12:37.896Z,8.67
2018-06-25T19:15:08.433Z,6.90
2018-06-25T19:17:39.286Z,10.90
2018-06-25T19:20:10.631Z,7.57
2018-06-25T19:22:41.469Z,10.03
2018-06-25T19:25:12.156Z,9.17
2018-06-25T19:27:43.056Z,8.70
2018-06-25T19:30:14.099Z,11.60
2018-06-25T19:32:46.992Z,7.47
2018-06-25T19:35:17.654Z,7.23
2018-06-25T19:37:48.820Z,10.30
2018-06-25T19:40:19.717Z,16.73
2018-06-25T19:42:50.288Z,13.70
2018-06-25T19:45:20.946Z,12.33
2018-06-25T19:47:51.684Z,12.07
2018-06-25T19:50:22.873Z,12.80
2018-06-25T19:52:53.716Z,15.73
2018-06-25T19:55:24.517Z,13.50
2018-06-25T19:57:55.348Z,14.20
2018-06-25T20:00:26.136Z,12.77
2018-06-25T20:02:56.860Z,14.13
2018-06-25T20:05:27.621Z,14.60
2018-06-25T20:07:58.337Z,10.00
2018-06-25T20:10:29.022Z,20.77
2018-06-25T20:12:59.679Z,12.43
2018-06-25T20:15:30.389Z,12.50
2018-06-25T20:18:00.960Z,16.97
2018-06-25T20:20:31.705Z,14.27
2018-06-25T20:23:02.508Z,17.70
2018-06-25T20:25:33.201Z,12.90
2018-06-25T20:28:03.935Z,7.83
2018-06-25T20:30:34.641Z,10.00
2018-06-25T20:33:05.590Z,12.23
2018-06-25T20:35:36.290Z,13.47
2018-06-25T20:38:09.838Z,12.10
2018-06-25T20:40:40.909Z,14.03
2018-06-25T20:43:11.603Z,9.10
2018-06-25T20:45:42.370Z,12.57
2018-06-25T20:48:13.335Z,10.40
2018-06-25T20:50:44.248Z,20.03
2018-06-25T20:53:15.003Z,12.40
2018-06-25T20:55:45.513Z,20.07
2018-06-25T20:58:16.337Z,12.83
2018-06-25T21:00:46.885Z,9.17
2018-06-25T21:03:17.646Z,15.10
2018-06-25T21:05:55.046Z,10.30
2018-06-25T21:08:26.829Z,14.13
2018-06-25T21:10:57.466Z,11.50
2018-06-25T21:13:28.228Z,11.67
2018-06-25T21:15:59.031Z,12.97
2018-06-25T21:18:29.684Z,14.60
2018-06-25T21:21:00.562Z,12.07
2018-06-25T21:23:31.232Z,12.23
2018-06-25T21:26:01.807Z,11.47
2018-06-25T21:28:32.456Z,12.13
2018-06-25T21:31:03.374Z,12.63
2018-06-25T21:33:33.729Z,13.63
2018-06-25T21:36:04.373Z,15.23
2018-06-25T21:38:34.931Z,11.57
2018-06-25T21:41:05.572Z,10.80
2018-06-25T21:43:36.118Z,14.93
2018-06-25T21:46:06.817Z,15.07
2018-06-25T21:48:37.426Z,12.40
2018-06-25T21:51:07.946Z,16.30
2018-06-25T21:53:38.596Z,12.03
2018-06-25T21:56:09.637Z,14.80
2018-06-25T21:58:40.198Z,12.03
2018-06-25T22:01:11.072Z,17.53
2018-06-25T22:03:41.596Z,13.70
2018-06-25T22:06:12.028Z,15.47
2018-06-25T22:08:42.586Z,19.27
2018-06-25T22:11:13.227Z,12.90
2018-06-25T22:13:43.989Z,12.40
2018-06-25T22:16:14.431Z,13.17
2018-06-25T22:18:45.487Z,14.70
2018-06-25T22:21:16.023Z,15.90
2018-06-25T22:23:47.266Z,15.90
2018-06-25T22:26:17.813Z,11.43
2018-06-25T22:28:48.578Z,15.50
2018-06-25T22:31:19.275Z,13.37
2018-06-25T22:33:49.766Z,18.20
2018-06-25T22:36:20.522Z,11.37
2018-06-25T22:38:50.906Z,14.10
2018-06-25T22:41:21.378Z,10.17
2018-06-25T22:43:52.240Z,14.20
2018-06-25T22:46:22.953Z,11.67
2018-06-25T22:48:53.705Z,11.53
2018-06-25T22:51:24.626Z,14.50
2018-06-25T22:53:55.070Z,14.33
2018-06-25T22:56:25.591Z,9.73
2018-06-25T22:58:56.436Z,10.87
2018-06-25T23:01:27.182Z,17.13
2018-06-25T23:03:58.128Z,15.27
2018-06-25T23:06:29.059Z,12.80
2018-06-25T23:08:59.642Z,15.03
2018-06-25T23:11:30.071Z,13.40
2018-06-25T23:14:00.698Z,9.00
2018-06-25T23:16:32.272Z,10.00
2018-06-25T23:19:03.460Z,11.20
2018-06-25T23:21:34.152Z,11.07
2018-06-25T23:24:04.983Z,12.83
2018-06-25T23:26:35.879Z,8.37
2018-06-25T23:29:06.325Z,11.00
2018-06-25T23:31:37.114Z,10.00
2018-06-25T23:34:08.002Z,8.73
2018-06-25T23:36:38.566Z,8.33
2018-06-25T23:39:11.264Z,6.27
2018-06-25T23:41:42.437Z,8.60
2018-06-25T23:44:12.934Z,9.70
2018-06-25T23:46:49.795Z,8.70
2018-06-25T23:49:20.904Z,14.90
2018-06-25T23:51:51.448Z,8.20
2018-06-25T23:54:22.010Z,5.33
2018-06-25T23:56:52.574Z,16.90
2018-06-25T23:59:23.187Z,6.57
